createdAt,value
2023-02-26T00:01:25.580Z,97288.94
2023-02-26T00:03:54.356Z,97289.97
2023-02-26T00:06:21.513Z,97308.34
2023-02-26T00:08:48.391Z,97308.59
2023-02-26T00:11:16.509Z,97311.28
2023-02-26T00:13:45.053Z,97312.94
2023-02-26T00:16:18.174Z,97305.97
2023-02-26T00:18:45.373Z,97302.47
2023-02-26T00:21:18.387Z,97298.13
2023-02-26T00:23:45.513Z,97293.81
2023-02-26T00:26:12.728Z,97306.88
2023-02-26T00:28:40.309Z,97315.47
2023-02-26T00:31:08.169Z,97318.25
2023-02-26T00:33:35.411Z,97322.72
2023-02-26T00:36:26.081Z,97315.03
2023-02-26T00:39:25.347Z,97324.63
2023-02-26T00:41:52.867Z,97329.16
2023-02-26T00:44:20.043Z,97327.31
2023-02-26T00:46:58.039Z,97320.41
2023-02-26T00:49:55.608Z,97323.78
2023-02-26T00:52:44.267Z,97331.50
2023-02-26T00:55:11.336Z,97328.81
2023-02-26T00:57:38.492Z,97329.78
2023-02-26T01:00:08.105Z,97337.47
2023-02-26T01:02:36.586Z,97336.56
2023-02-26T01:05:04.292Z,97341.72
2023-02-26T01:07:49.042Z,97351.25
2023-02-26T01:10:16.650Z,97357.38
2023-02-26T01:12:44.322Z,97353.00
2023-02-26T01:15:11.674Z,97347.84
2023-02-26T01:17:52.945Z,97339.97
2023-02-26T01:20:23.595Z,97348.66
2023-02-26T01:23:01.539Z,97358.97
2023-02-26T01:26:14.912Z,97349.56
2023-02-26T01:28:42.470Z,97350.28
2023-02-26T01:31:19.396Z,97354.59
2023-02-26T01:33:53.949Z,97353.75
2023-02-26T01:36:24.224Z,97359.81
2023-02-26T01:39:02.683Z,97364.25
2023-02-26T01:42:14.013Z,97360.78
2023-02-26T01:45:12.333Z,97359.97
2023-02-26T01:47:54.359Z,97362.56
2023-02-26T01:50:25.847Z,97356.34
2023-02-26T01:53:16.588Z,97342.44
2023-02-26T01:55:49.465Z,97327.75
2023-02-26T01:58:17.308Z,97330.34
2023-02-26T02:00:44.662Z,97333.75
2023-02-26T02:03:11.849Z,97336.28
2023-02-26T02:05:47.483Z,97351.16
2023-02-26T02:08:14.591Z,97360.63
2023-02-26T02:10:45.775Z,97366.06
2023-02-26T02:13:34.338Z,97378.88
2023-02-26T02:16:13.822Z,97400.72
2023-02-26T02:18:44.185Z,97424.31
2023-02-26T02:21:23.065Z,97445.03
2023-02-26T02:24:03.049Z,97433.81
2023-02-26T02:26:42.696Z,97428.53
2023-02-26T02:29:26.978Z,97430.28
2023-02-26T02:32:10.057Z,97434.63
2023-02-26T02:34:53.492Z,97421.63
2023-02-26T02:37:30.589Z,97420.03
2023-02-26T02:40:17.707Z,97408.00
2023-02-26T02:42:52.423Z,97417.72
2023-02-26T02:45:50.012Z,97422.13
2023-02-26T02:48:31.632Z,97443.75
2023-02-26T02:51:04.305Z,97451.50
2023-02-26T02:53:37.823Z,97454.97
2023-02-26T02:56:10.911Z,97457.66
2023-02-26T02:58:44.325Z,97455.13
2023-02-26T03:01:14.616Z,97458.69
2023-02-26T03:03:57.158Z,97459.59
2023-02-26T03:06:24.779Z,97462.03
2023-02-26T03:08:53.248Z,97472.44
2023-02-26T03:11:20.818Z,97489.03
2023-02-26T03:13:49.586Z,97508.06
2023-02-26T03:16:54.661Z,97509.91
2023-02-26T03:19:31.215Z,97496.13
2023-02-26T03:22:31.892Z,97497.81
2023-02-26T03:25:13.512Z,97502.25
2023-02-26T03:27:52.855Z,97526.53
2023-02-26T03:30:33.047Z,97530.03
2023-02-26T03:33:24.128Z,97546.44
2023-02-26T03:35:57.216Z,97552.44
2023-02-26T03:38:53.008Z,97553.31
2023-02-26T03:41:33.474Z,97557.72
2023-02-26T03:44:13.360Z,97565.44
2023-02-26T03:46:46.132Z,97561.88
2023-02-26T03:49:18.349Z,97558.56
2023-02-26T03:51:46.856Z,97562.91
2023-02-26T03:54:21.387Z,97551.59
2023-02-26T03:56:49.719Z,97536.13
2023-02-26T03:59:17.970Z,97563.00
2023-02-26T04:02:08.719Z,97555.25
2023-02-26T04:04:48.391Z,97540.50
2023-02-26T04:07:17.680Z,97542.28
2023-02-26T04:09:47.532Z,97541.31
2023-02-26T04:12:15.257Z,97556.09
2023-02-26T04:14:42.133Z,97555.19
2023-02-26T04:17:09.316Z,97541.34
2023-02-26T04:19:36.215Z,97546.72
2023-02-26T04:22:03.561Z,97551.91
2023-02-26T04:24:30.693Z,97554.53
2023-02-26T04:26:57.860Z,97555.41
2023-02-26T04:29:24.838Z,97568.50
2023-02-26T04:31:52.011Z,97574.59
2023-02-26T04:34:18.916Z,97580.63
2023-02-26T04:36:46.118Z,97595.47
2023-02-26T04:39:13.101Z,97592.94
2023-02-26T04:41:40.337Z,97599.81
2023-02-26T04:44:07.439Z,97604.25
2023-02-26T04:46:34.679Z,97612.84
2023-02-26T04:49:01.630Z,97618.03
2023-02-26T04:51:28.811Z,97612.84
2023-02-26T04:53:55.766Z,97589.41
2023-02-26T04:56:23.152Z,97578.22
2023-02-26T04:58:50.280Z,97580.03
2023-02-26T05:01:17.528Z,97592.13
2023-02-26T05:03:44.444Z,97600.88
2023-02-26T05:06:11.629Z,97617.38
2023-02-26T05:08:42.291Z,97613.06
2023-02-26T05:11:10.904Z,97616.69
2023-02-26T05:13:38.412Z,97634.06
2023-02-26T05:16:07.278Z,97640.09
2023-02-26T05:18:34.336Z,97628.81
2023-02-26T05:21:01.548Z,97631.47
2023-02-26T05:23:28.976Z,97624.56
2023-02-26T05:25:57.413Z,97626.38
2023-02-26T05:28:25.321Z,97637.56
2023-02-26T05:30:53.085Z,97641.94
2023-02-26T05:33:20.042Z,97653.28
2023-02-26T05:35:48.297Z,97658.47
2023-02-26T05:38:15.334Z,97666.31
2023-02-26T05:40:42.498Z,97684.31
2023-02-26T05:43:09.474Z,97687.75
2023-02-26T05:45:36.639Z,97691.19
2023-02-26T05:48:04.018Z,97679.81
2023-02-26T05:50:31.272Z,97688.41
2023-02-26T05:52:58.289Z,97691.88
2023-02-26T05:55:25.471Z,97697.03
2023-02-26T05:57:52.345Z,97695.31
2023-02-26T06:00:19.808Z,97697.84
2023-02-26T06:02:46.704Z,97699.59
2023-02-26T06:05:14.155Z,97712.53
2023-02-26T06:07:41.015Z,97701.19
2023-02-26T06:10:08.986Z,97708.91
2023-02-26T06:12:36.550Z,97721.84
2023-02-26T06:15:05.379Z,97730.50
2023-02-26T06:17:33.317Z,97732.13
2023-02-26T06:20:00.629Z,97743.31
2023-02-26T06:22:27.581Z,97742.38
2023-02-26T06:24:55.755Z,97745.75
2023-02-26T06:27:23.483Z,97749.25
2023-02-26T06:29:50.663Z,97755.31
2023-02-26T06:32:17.814Z,97771.84
2023-02-26T06:34:45.102Z,97778.78
2023-02-26T06:37:12.007Z,97776.19
2023-02-26T06:39:39.168Z,97785.63
2023-02-26T06:42:06.197Z,97801.16
2023-02-26T06:44:33.402Z,97807.28
2023-02-26T06:47:00.343Z,97807.41
2023-02-26T06:49:27.739Z,97809.09
2023-02-26T06:51:54.651Z,97816.84
2023-02-26T06:54:21.838Z,97822.81
2023-02-26T06:56:48.767Z,97832.34
2023-02-26T06:59:16.032Z,97833.16
2023-02-26T07:01:43.076Z,97810.44
2023-02-26T07:04:10.563Z,97815.50
2023-02-26T07:06:37.559Z,97813.56
2023-02-26T07:09:04.788Z,97810.66
2023-02-26T07:11:31.721Z,97809.53
2023-02-26T07:13:58.886Z,97824.13
2023-02-26T07:16:26.021Z,97823.06
2023-02-26T07:18:53.420Z,97823.78
2023-02-26T07:21:20.304Z,97838.50
2023-02-26T07:23:47.604Z,97839.22
2023-02-26T07:26:15.443Z,97837.41
2023-02-26T07:28:42.563Z,97849.47
2023-02-26T07:31:09.633Z,97853.66
2023-02-26T07:33:38.571Z,97838.50
2023-02-26T07:36:06.367Z,97844.28
2023-02-26T07:38:33.580Z,97854.41
2023-02-26T07:41:00.490Z,97861.25
2023-02-26T07:43:27.724Z,97867.31
2023-02-26T07:45:54.753Z,97861.50
2023-02-26T07:48:21.946Z,97877.25
2023-02-26T07:50:52.225Z,97884.38
2023-02-26T07:53:19.956Z,97891.50
2023-02-26T07:55:47.535Z,97893.38
2023-02-26T07:58:14.462Z,97908.25
2023-02-26T08:00:41.618Z,97906.69
2023-02-26T08:03:08.444Z,97912.88
2023-02-26T08:05:36.068Z,97924.38
2023-02-26T08:08:03.420Z,97934.22
2023-02-26T08:10:31.068Z,97939.72
2023-02-26T08:12:57.956Z,97952.75
2023-02-26T08:15:25.140Z,97956.31
2023-02-26T08:17:53.707Z,97959.00
2023-02-26T08:20:21.208Z,97966.81
2023-02-26T08:22:48.117Z,97960.91
2023-02-26T08:25:15.906Z,97973.81
2023-02-26T08:27:43.076Z,97973.81
2023-02-26T08:30:11.133Z,97979.81
2023-02-26T08:32:39.968Z,97974.66
2023-02-26T08:35:07.460Z,97981.63
2023-02-26T08:37:34.321Z,97981.66
2023-02-26T08:40:01.610Z,97984.25
2023-02-26T08:42:28.505Z,97989.44
2023-02-26T08:44:55.736Z,97996.41
2023-02-26T08:47:28.783Z,97993.78
2023-02-26T08:49:56.843Z,98010.25
2023-02-26T08:52:23.755Z,98008.47
2023-02-26T08:54:51.317Z,98009.28
2023-02-26T08:57:18.285Z,98018.69
2023-02-26T08:59:45.751Z,98008.16
2023-02-26T09:02:14.240Z,98017.03
2023-02-26T09:04:41.419Z,98017.16
2023-02-26T09:07:08.294Z,98011.13
2023-02-26T09:09:35.524Z,98015.09
2023-02-26T09:12:02.540Z,98012.94
2023-02-26T09:14:29.817Z,98025.47
2023-02-26T09:16:56.691Z,98024.25
2023-02-26T09:19:23.856Z,98020.63
2023-02-26T09:21:50.793Z,98022.28
2023-02-26T09:24:18.041Z,98040.53
2023-02-26T09:26:44.943Z,98049.28
2023-02-26T09:29:13.398Z,98050.97
2023-02-26T09:31:40.759Z,98057.91
2023-02-26T09:34:09.886Z,98063.25
2023-02-26T09:36:37.669Z,98073.69
2023-02-26T09:39:05.022Z,98071.03
2023-02-26T09:41:36.576Z,98073.66
2023-02-26T09:44:06.342Z,98080.69
2023-02-26T09:46:48.353Z,98082.31
2023-02-26T09:49:41.395Z,98083.94
2023-02-26T09:52:26.414Z,98084.59
2023-02-26T09:54:58.720Z,98090.72
2023-02-26T09:57:34.953Z,98095.03
2023-02-26T10:00:08.094Z,98097.66
2023-02-26T10:02:47.992Z,98095.16
2023-02-26T10:05:26.346Z,98093.31
2023-02-26T10:08:02.286Z,98102.81
2023-02-26T10:10:48.720Z,98100.03
2023-02-26T10:13:35.417Z,98107.50
2023-02-26T10:16:26.338Z,98116.69
2023-02-26T10:19:01.134Z,98114.66
2023-02-26T10:21:36.837Z,98114.25
2023-02-26T10:24:13.889Z,98104.84
2023-02-26T10:26:54.401Z,98107.25
2023-02-26T10:29:44.597Z,98114.53
2023-02-26T10:32:23.424Z,98110.97
2023-02-26T10:35:16.149Z,98123.06
2023-02-26T10:37:56.271Z,98124.97
2023-02-26T10:40:46.825Z,98125.13
2023-02-26T10:43:25.537Z,98135.94
2023-02-26T10:46:11.372Z,98138.06
2023-02-26T10:48:59.811Z,98137.50
2023-02-26T10:51:35.382Z,98136.69
2023-02-26T10:54:19.566Z,98155.09
2023-02-26T10:56:46.668Z,98162.00
2023-02-26T10:59:15.222Z,98164.88
2023-02-26T11:01:44.431Z,98167.00
2023-02-26T11:04:18.247Z,98179.63
2023-02-26T11:07:00.515Z,98186.34
2023-02-26T11:09:38.393Z,98180.84
2023-02-26T11:12:06.676Z,98180.41
2023-02-26T11:14:34.732Z,98190.34
2023-02-26T11:17:06.836Z,98189.88
2023-02-26T11:19:38.315Z,98198.97
2023-02-26T11:22:09.860Z,98193.06
2023-02-26T11:24:41.551Z,98198.31
2023-02-26T11:27:24.863Z,98197.31
2023-02-26T11:29:59.853Z,98196.16
2023-02-26T11:32:37.134Z,98195.75
2023-02-26T11:35:08.898Z,98188.41
2023-02-26T11:37:39.473Z,98199.28
2023-02-26T11:40:16.142Z,98210.16
2023-02-26T11:42:54.059Z,98206.41
2023-02-26T11:45:22.224Z,98209.59
2023-02-26T11:47:59.472Z,98210.19
2023-02-26T11:50:28.496Z,98218.63
2023-02-26T11:53:04.147Z,98218.25
2023-02-26T11:55:44.632Z,98211.66
2023-02-26T11:58:23.517Z,98220.84
2023-02-26T12:00:54.375Z,98219.88
2023-02-26T12:03:24.592Z,98232.97
2023-02-26T12:05:53.384Z,98235.63
2023-02-26T12:08:20.278Z,98239.50
2023-02-26T12:11:19.744Z,98234.50
2023-02-26T12:14:35.058Z,98242.03
2023-02-26T12:17:15.084Z,98237.63
2023-02-26T12:20:07.901Z,98241.66
2023-02-26T12:22:55.308Z,98242.56
2023-02-26T12:25:31.468Z,98239.81
2023-02-26T12:28:32.936Z,98251.25
2023-02-26T12:31:29.155Z,98251.34
2023-02-26T12:34:17.165Z,98256.69
2023-02-26T12:37:08.724Z,98264.78
2023-02-26T12:40:01.793Z,98270.03
2023-02-26T12:42:55.141Z,98269.09
2023-02-26T12:45:37.537Z,98271.56
2023-02-26T12:48:41.920Z,98278.28
2023-02-26T12:51:30.372Z,98276.50
2023-02-26T12:54:26.376Z,98284.34
2023-02-26T12:57:12.185Z,98284.28
2023-02-26T12:59:48.057Z,98290.25
2023-02-26T13:02:36.590Z,98288.56
2023-02-26T13:05:25.181Z,98297.16
2023-02-26T13:08:02.785Z,98295.22
2023-02-26T13:10:52.009Z,98298.72
2023-02-26T13:13:28.001Z,98299.56
2023-02-26T13:16:03.991Z,98298.69
2023-02-26T13:18:52.704Z,98301.38
2023-02-26T13:21:31.193Z,98307.41
2023-02-26T13:24:06.249Z,98316.09
2023-02-26T13:26:35.803Z,98310.91
2023-02-26T13:29:04.781Z,98302.28
2023-02-26T13:31:49.612Z,98310.22
2023-02-26T13:34:35.177Z,98326.13
2023-02-26T13:37:04.267Z,98323.66
2023-02-26T13:39:31.362Z,98329.72
2023-02-26T13:42:20.114Z,98328.81
2023-02-26T13:45:05.706Z,98332.44
2023-02-26T13:47:42.853Z,98324.53
2023-02-26T13:50:12.948Z,98332.28
2023-02-26T13:52:54.762Z,98334.03
2023-02-26T13:55:42.995Z,98331.59
2023-02-26T13:58:23.044Z,98339.56
2023-02-26T14:01:08.757Z,98339.84
2023-02-26T14:04:06.334Z,98342.50
2023-02-26T14:06:39.121Z,98343.63
2023-02-26T14:09:29.066Z,98351.72
2023-02-26T14:12:01.196Z,98360.63
2023-02-26T14:14:41.434Z,98358.41
2023-02-26T14:17:08.642Z,98365.59
2023-02-26T14:19:53.489Z,98372.06
2023-02-26T14:22:35.022Z,98372.38
2023-02-26T14:25:20.063Z,98383.06
2023-02-26T14:27:48.992Z,98376.16
2023-02-26T14:30:34.048Z,98370.22
2023-02-26T14:33:01.528Z,98369.38
2023-02-26T14:35:32.203Z,98379.06
2023-02-26T14:38:27.972Z,98386.13
2023-02-26T14:41:09.000Z,98392.19
2023-02-26T14:43:45.323Z,98396.56
2023-02-26T14:46:13.049Z,98401.84
2023-02-26T14:48:40.257Z,98406.22
2023-02-26T14:51:19.295Z,98419.22
2023-02-26T14:53:58.899Z,98421.91
2023-02-26T14:56:54.274Z,98420.16
2023-02-26T14:59:41.798Z,98421.91
2023-02-26T15:02:18.641Z,98432.31
2023-02-26T15:05:01.651Z,98449.59
2023-02-26T15:07:48.019Z,98449.59
2023-02-26T15:10:33.559Z,98449.59
2023-02-26T15:13:25.103Z,98451.25
2023-02-26T15:16:18.722Z,98456.41
2023-02-26T15:18:53.226Z,98454.63
2023-02-26T15:21:32.567Z,98454.69
2023-02-26T15:23:59.957Z,98466.03
2023-02-26T15:26:34.148Z,98459.16
2023-02-26T15:29:05.698Z,98475.78
2023-02-26T15:31:41.650Z,98470.75
2023-02-26T15:34:14.221Z,98477.81
2023-02-26T15:36:53.255Z,98479.72
2023-02-26T15:39:23.416Z,98487.69
2023-02-26T15:41:52.693Z,98491.28
2023-02-26T15:44:27.243Z,98482.75
2023-02-26T15:47:01.532Z,98497.59
2023-02-26T15:49:38.943Z,98508.88
2023-02-26T15:52:08.783Z,98513.25
2023-02-26T15:54:45.273Z,98518.50
2023-02-26T15:57:14.822Z,98523.72
2023-02-26T15:59:48.368Z,98534.16
2023-02-26T16:02:19.994Z,98541.03
2023-02-26T16:04:47.202Z,98542.81
2023-02-26T16:07:14.764Z,98552.34
2023-02-26T16:09:50.066Z,98564.44
2023-02-26T16:12:34.516Z,98561.00
2023-02-26T16:15:07.037Z,98567.94
2023-02-26T16:17:39.508Z,98577.50
2023-02-26T16:20:14.636Z,98578.41
2023-02-26T16:23:09.279Z,98582.75
2023-02-26T16:25:50.710Z,98591.38
2023-02-26T16:28:29.974Z,98594.94
2023-02-26T16:30:59.872Z,98601.91
2023-02-26T16:33:31.950Z,98604.56
2023-02-26T16:36:18.296Z,98614.09
2023-02-26T16:38:49.950Z,98614.09
2023-02-26T16:41:22.895Z,98614.16
2023-02-26T16:43:57.852Z,98612.41
2023-02-26T16:46:46.520Z,98618.47
2023-02-26T16:49:24.682Z,98628.03
2023-02-26T16:51:53.760Z,98617.66
2023-02-26T16:54:26.458Z,98629.75
2023-02-26T16:56:59.992Z,98634.09
2023-02-26T16:59:31.729Z,98637.53
2023-02-26T17:02:03.369Z,98641.81
2023-02-26T17:04:35.818Z,98644.47
2023-02-26T17:07:14.723Z,98655.69
2023-02-26T17:09:49.374Z,98654.84
2023-02-26T17:12:28.639Z,98659.19
2023-02-26T17:14:58.168Z,98653.94
2023-02-26T17:17:25.691Z,98661.72
2023-02-26T17:19:53.200Z,98657.41
2023-02-26T17:22:26.345Z,98666.94
2023-02-26T17:24:53.843Z,98670.41
2023-02-26T17:27:29.844Z,98681.72
2023-02-26T17:29:58.120Z,98673.94
2023-02-26T17:32:31.420Z,98682.56
2023-02-26T17:34:59.381Z,98679.97
2023-02-26T17:37:33.716Z,98689.50
2023-02-26T17:40:00.955Z,98688.66
2023-02-26T17:42:27.949Z,98692.09
2023-02-26T17:44:56.864Z,98698.19
2023-02-26T17:47:26.275Z,98697.38
2023-02-26T17:49:54.391Z,98695.69
2023-02-26T17:52:21.378Z,98701.78
2023-02-26T17:54:48.783Z,98701.84
2023-02-26T17:57:22.221Z,98708.81
2023-02-26T18:12:19.471Z,98735.00
2023-02-26T18:14:46.924Z,98739.47
2023-02-26T18:17:26.065Z,98743.06
2023-02-26T18:19:53.639Z,98750.97
2023-02-26T18:22:25.303Z,98748.41
2023-02-26T18:24:53.682Z,98747.59
2023-02-26T18:27:23.708Z,98744.22
2023-02-26T18:29:51.454Z,98760.69
2023-02-26T18:32:21.761Z,98760.72
2023-02-26T18:34:50.934Z,98764.16
2023-02-26T18:37:20.943Z,98758.97
2023-02-26T18:39:48.437Z,98765.91
2023-02-26T18:42:24.243Z,98768.53
2023-02-26T18:44:53.264Z,98769.44
2023-02-26T18:47:22.477Z,98769.44
2023-02-26T18:49:51.101Z,98776.38
2023-02-26T18:52:18.417Z,98766.06
2023-02-26T18:54:45.736Z,98768.69
2023-02-26T18:57:12.655Z,98765.25
2023-02-26T18:59:40.318Z,98773.06
2023-02-26T19:02:07.899Z,98772.22
2023-02-26T19:04:35.252Z,98769.66
2023-02-26T19:07:03.798Z,98769.66
2023-02-26T19:09:31.024Z,98772.28
2023-02-26T19:11:58.529Z,98767.94
2023-02-26T19:14:25.791Z,98774.03
2023-02-26T19:16:53.332Z,98772.28
2023-02-26T19:19:21.251Z,98773.16
2023-02-26T19:21:48.927Z,98775.75
2023-02-26T19:24:16.564Z,98778.34
2023-02-26T19:26:44.385Z,98790.44
2023-02-26T19:29:15.796Z,98785.28
2023-02-26T19:31:43.767Z,98789.63
2023-02-26T19:34:12.039Z,98784.44
2023-02-26T19:36:40.687Z,98800.84
2023-02-26T19:39:08.342Z,98802.59
2023-02-26T19:41:35.270Z,98808.63
2023-02-26T19:44:02.438Z,98810.34
2023-02-26T19:46:29.393Z,98811.22
2023-02-26T19:48:56.600Z,98824.19
2023-02-26T19:51:23.523Z,98817.28
2023-02-26T19:53:50.761Z,98823.31
2023-02-26T19:56:17.661Z,98819.88
2023-02-26T19:58:44.887Z,98821.63
2023-02-26T20:01:11.849Z,98826.81
2023-02-26T20:03:39.021Z,98825.06
2023-02-26T20:06:08.408Z,98820.75
2023-02-26T20:08:35.648Z,98817.31
2023-02-26T20:11:02.717Z,98820.75
2023-02-26T20:13:30.973Z,98831.16
2023-02-26T20:15:58.829Z,98831.16
2023-02-26T20:18:28.710Z,98828.59
2023-02-26T20:20:55.982Z,98829.44
2023-02-26T20:23:23.305Z,98820.81
2023-02-26T20:25:50.555Z,98824.25
2023-02-26T20:28:18.554Z,98823.41
2023-02-26T20:30:46.389Z,98822.53
2023-02-26T20:33:14.465Z,98832.06
2023-02-26T20:35:46.047Z,98824.28
2023-02-26T20:38:14.768Z,98835.50
2023-02-26T20:40:41.998Z,98832.88
2023-02-26T20:43:09.636Z,98827.69
2023-02-26T20:45:37.990Z,98832.06
2023-02-26T20:48:06.817Z,98837.25
2023-02-26T20:50:35.045Z,98843.31
2023-02-26T20:53:03.708Z,98846.75
2023-02-26T20:55:30.620Z,98856.28
2023-02-26T20:57:57.759Z,98855.38
2023-02-26T21:00:25.126Z,98854.53
2023-02-26T21:02:52.521Z,98854.53
2023-02-26T21:05:19.652Z,98864.03
2023-02-26T21:07:46.949Z,98863.19
2023-02-26T21:10:16.079Z,98870.97
2023-02-26T21:12:43.395Z,98871.84
2023-02-26T21:15:12.370Z,98873.56
2023-02-26T21:17:41.457Z,98872.72
2023-02-26T21:20:12.031Z,98874.44
2023-02-26T21:22:39.699Z,98886.56
2023-02-26T21:25:07.681Z,98886.56
2023-02-26T21:27:37.042Z,98884.84
2023-02-26T21:30:18.434Z,98891.75
2023-02-26T21:32:48.218Z,98891.72
2023-02-26T21:35:17.048Z,98888.28
2023-02-26T21:37:48.885Z,98894.31
2023-02-26T21:40:16.456Z,98896.06
2023-02-26T21:42:44.136Z,98899.53
2023-02-26T21:45:11.501Z,98907.31
2023-02-26T21:47:39.060Z,98897.81
2023-02-26T21:50:07.640Z,98901.25
2023-02-26T21:52:35.028Z,98902.13
2023-02-26T21:55:02.313Z,98911.63
2023-02-26T21:57:30.241Z,98903.84
2023-02-26T21:59:57.287Z,98915.97
2023-02-26T22:02:24.808Z,98920.28
2023-02-26T22:04:51.824Z,98923.72
2023-02-26T22:07:19.926Z,98925.44
2023-02-26T22:09:48.992Z,98929.78
2023-02-26T22:12:17.284Z,98926.34
2023-02-26T22:14:44.381Z,98923.75
2023-02-26T22:17:11.974Z,98931.53
2023-02-26T22:19:38.816Z,98944.47
2023-02-26T22:22:06.559Z,98946.19
2023-02-26T22:24:33.494Z,98946.19
2023-02-26T22:27:00.700Z,98946.19
2023-02-26T22:29:27.613Z,98940.16
2023-02-26T22:31:56.720Z,98948.78
2023-02-26T22:34:23.749Z,98941.00
2023-02-26T22:36:52.255Z,98952.25
2023-02-26T22:39:20.475Z,98955.72
2023-02-26T22:41:47.967Z,98958.31
2023-02-26T22:44:15.273Z,98964.34
2023-02-26T22:46:42.706Z,98973.00
2023-02-26T22:49:09.616Z,98971.25
2023-02-26T22:51:36.880Z,98976.44
2023-02-26T22:54:04.020Z,98976.44
2023-02-26T22:56:31.781Z,98979.03
2023-02-26T22:58:58.788Z,98973.00
2023-02-26T23:01:26.434Z,98979.91
2023-02-26T23:03:53.373Z,98988.53
2023-02-26T23:06:20.622Z,98988.53
2023-02-26T23:08:47.685Z,98993.72
2023-02-26T23:11:14.896Z,99003.22
2023-02-26T23:13:41.767Z,99000.63
2023-02-26T23:16:10.922Z,99004.06
2023-02-26T23:18:39.480Z,99007.53
2023-02-26T23:21:08.142Z,98998.88
2023-02-26T23:23:35.204Z,99002.34
2023-02-26T23:26:02.718Z,99004.94
2023-02-26T23:28:29.955Z,99005.78
2023-02-26T23:30:57.180Z,99011.84
2023-02-26T23:33:24.150Z,99013.56
2023-02-26T23:35:51.455Z,99014.41
2023-02-26T23:38:18.354Z,99022.19
2023-02-26T23:40:45.571Z,99022.19
2023-02-26T23:43:12.449Z,99023.09
2023-02-26T23:45:39.750Z,99027.38
2023-02-26T23:48:07.045Z,99017.03
2023-02-26T23:50:34.330Z,99016.16
2023-02-26T23:53:01.460Z,99023.91
2023-02-26T23:55:28.707Z,99025.66
2023-02-26T23:57:55.588Z,99026.50
